createdAt,value
2022-10-20T00:03:57.405Z,3.13
2022-10-20T00:09:00.980Z,2.75
2022-10-20T00:14:03.214Z,2.70
2022-10-20T00:19:04.973Z,2.72
2022-10-20T00:24:06.538Z,2.88
2022-10-20T00:29:08.199Z,2.95
2022-10-20T00:34:10.147Z,3.20
2022-10-20T00:39:11.625Z,2.70
2022-10-20T00:44:49.848Z,3.10
2022-10-20T00:49:51.591Z,3.20
2022-10-20T00:54:53.152Z,3.35
2022-10-20T00:59:54.654Z,3.35
2022-10-20T01:04:56.143Z,3.10
2022-10-20T01:09:57.888Z,2.80
2022-10-20T01:15:14.786Z,3.50
2022-10-20T01:20:38.009Z,3.28
2022-10-20T01:26:18.855Z,3.25
2022-10-20T01:31:38.542Z,3.50
2022-10-20T01:36:47.738Z,3.13
2022-10-20T01:42:04.767Z,3.25
2022-10-20T01:47:07.520Z,3.45
2022-10-20T01:52:11.375Z,3.45
2022-10-20T01:57:28.233Z,4.05
2022-10-20T02:02:49.336Z,3.40
2022-10-20T02:07:50.928Z,3.50
2022-10-20T02:12:56.875Z,3.65
2022-10-20T02:18:04.186Z,3.92
2022-10-20T02:23:06.564Z,3.70
2022-10-20T02:28:10.856Z,4.00
2022-10-20T02:33:12.873Z,4.10
2022-10-20T02:38:14.443Z,3.88
2022-10-20T02:43:16.074Z,3.90
2022-10-20T02:48:17.627Z,3.67
2022-10-20T02:53:19.140Z,3.33
2022-10-20T02:58:20.645Z,3.28
2022-10-20T03:03:22.174Z,2.92
2022-10-20T03:08:23.678Z,3.35
2022-10-20T03:13:25.234Z,3.20
2022-10-20T03:18:26.788Z,3.42
2022-10-20T03:23:28.278Z,3.67
2022-10-20T03:28:29.784Z,3.30
2022-10-20T03:33:31.284Z,3.22
2022-10-20T03:38:32.826Z,3.00
2022-10-20T03:43:34.347Z,3.50
2022-10-20T03:48:36.798Z,3.65
2022-10-20T03:53:38.305Z,3.38
2022-10-20T03:58:39.850Z,3.20
2022-10-20T04:03:41.782Z,3.00
2022-10-20T04:08:43.380Z,4.10
2022-10-20T04:13:44.887Z,3.92
2022-10-20T04:18:46.363Z,3.90
2022-10-20T04:23:48.008Z,4.10
2022-10-20T04:28:49.583Z,4.32
2022-10-20T04:33:51.109Z,3.63
2022-10-20T04:38:52.613Z,4.00
2022-10-20T04:43:54.134Z,4.20
2022-10-20T04:48:55.635Z,3.90
2022-10-20T04:53:57.185Z,4.30
2022-10-20T04:58:59.228Z,4.38
2022-10-20T05:04:00.882Z,4.45
2022-10-20T05:09:04.310Z,4.30
2022-10-20T05:14:05.981Z,4.40
2022-10-20T05:19:07.506Z,4.50
2022-10-20T05:24:16.729Z,5.43
2022-10-20T05:29:21.533Z,4.70
2022-10-20T05:34:23.059Z,4.57
2022-10-20T05:39:24.552Z,4.90
2022-10-20T05:44:26.059Z,5.40
2022-10-20T05:49:27.635Z,5.20
2022-10-20T05:54:29.133Z,4.80
2022-10-20T05:59:32.282Z,5.45
2022-10-20T06:04:33.818Z,5.72
2022-10-20T06:09:36.069Z,4.57
2022-10-20T06:14:37.590Z,4.50
2022-10-20T06:19:39.085Z,4.60
2022-10-20T06:24:40.588Z,4.47
2022-10-20T06:29:42.074Z,4.10
2022-10-20T06:34:43.696Z,4.07
2022-10-20T06:39:45.176Z,4.47
2022-10-20T06:44:46.659Z,4.03
2022-10-20T06:49:48.771Z,4.18
2022-10-20T06:54:50.267Z,3.97
2022-10-20T06:59:51.768Z,4.05
2022-10-20T07:04:53.239Z,4.22
2022-10-20T07:09:54.717Z,4.10
2022-10-20T07:14:56.234Z,3.72
2022-10-20T07:19:57.924Z,3.45
2022-10-20T07:25:02.047Z,3.10
2022-10-20T07:30:04.198Z,3.70
2022-10-20T07:35:06.186Z,3.28
2022-10-20T07:40:08.156Z,2.90
2022-10-20T07:45:09.799Z,3.00
2022-10-20T07:50:12.912Z,3.33
2022-10-20T07:55:36.629Z,2.88
2022-10-20T08:00:35.960Z,2.80
2022-10-20T08:05:37.538Z,2.90
2022-10-20T08:10:39.034Z,2.88
2022-10-20T08:21:09.659Z,3.25
2022-10-20T08:26:12.437Z,2.78
2022-10-20T08:31:14.029Z,2.80
2022-10-20T08:36:15.672Z,2.92
2022-10-20T08:41:21.292Z,3.10
2022-10-20T08:46:30.576Z,2.78
2022-10-20T08:51:34.314Z,2.80
2022-10-20T08:56:35.830Z,3.05
2022-10-20T09:01:37.622Z,2.97
2022-10-20T09:06:41.952Z,2.88
2022-10-20T09:11:44.390Z,3.40
2022-10-20T09:16:59.708Z,3.08
2022-10-20T09:22:06.053Z,3.17
2022-10-20T09:27:23.814Z,2.95
2022-10-20T09:32:50.902Z,2.90
2022-10-20T09:37:52.398Z,2.67
2022-10-20T09:42:56.806Z,3.03
2022-10-20T09:48:18.284Z,2.90
2022-10-20T09:53:22.231Z,2.83
2022-10-20T09:58:29.490Z,2.80
2022-10-20T10:03:45.098Z,2.47
2022-10-20T10:08:47.389Z,2.30
2022-10-20T10:13:51.027Z,2.72
2022-10-20T10:19:01.739Z,2.72
2022-10-20T10:24:04.453Z,2.42
2022-10-20T10:29:06.014Z,2.90
2022-10-20T10:34:13.243Z,2.58
2022-10-20T10:39:15.922Z,2.75
2022-10-20T10:44:43.696Z,2.90
2022-10-20T10:49:54.409Z,2.83
2022-10-20T10:55:30.528Z,2.90
2022-10-20T11:01:07.184Z,3.03
2022-10-20T11:06:20.024Z,2.70
2022-10-20T11:11:30.807Z,2.50
2022-10-20T11:16:51.923Z,2.35
2022-10-20T11:21:59.167Z,2.40
2022-10-20T11:27:04.501Z,2.60
2022-10-20T11:32:16.431Z,2.40
2022-10-20T11:37:17.810Z,2.55
2022-10-20T11:42:32.446Z,2.63
2022-10-20T11:47:39.179Z,2.78
2022-10-20T11:53:13.458Z,2.67
2022-10-20T11:58:32.586Z,2.67
2022-10-20T12:03:41.712Z,2.63
2022-10-20T12:08:52.599Z,2.65
2022-10-20T12:14:07.184Z,3.03
2022-10-20T12:19:21.779Z,2.88
2022-10-20T12:24:37.858Z,2.50
2022-10-20T12:29:42.054Z,2.80
2022-10-20T12:34:43.609Z,2.85
2022-10-20T12:39:46.013Z,2.88
2022-10-20T12:44:47.714Z,2.97
2022-10-20T12:49:56.700Z,3.30
2022-10-20T12:55:19.399Z,3.08
2022-10-20T13:00:23.613Z,3.10
2022-10-20T13:05:27.516Z,3.67
2022-10-20T13:10:31.874Z,4.15
2022-10-20T13:15:37.007Z,4.15
2022-10-20T13:20:59.473Z,4.28
2022-10-20T13:26:30.376Z,3.95
2022-10-20T13:31:34.309Z,4.57
2022-10-20T13:36:57.038Z,4.38
2022-10-20T13:42:17.087Z,3.90
2022-10-20T13:47:34.942Z,4.20
2022-10-20T13:52:41.286Z,4.80
2022-10-20T13:57:55.540Z,5.20
2022-10-20T14:03:14.478Z,5.20
2022-10-20T14:08:21.196Z,5.50
2022-10-20T14:13:27.359Z,5.63
2022-10-20T14:18:32.613Z,5.43
2022-10-20T14:23:38.601Z,5.70
2022-10-20T14:28:42.005Z,5.68
2022-10-20T14:33:45.180Z,6.43
2022-10-20T14:38:48.650Z,6.53
2022-10-20T14:43:53.081Z,6.15
2022-10-20T14:48:54.634Z,7.25
2022-10-20T14:54:28.111Z,6.57
2022-10-20T14:59:32.921Z,6.65
2022-10-20T15:04:36.393Z,6.10
2022-10-20T15:09:41.442Z,6.32
2022-10-20T15:14:46.790Z,7.28
2022-10-20T15:19:48.324Z,6.25
2022-10-20T15:24:49.961Z,6.32
2022-10-20T15:29:51.791Z,6.22
2022-10-20T15:34:53.267Z,6.80
2022-10-20T15:39:54.771Z,5.80
2022-10-20T15:44:56.242Z,6.10
2022-10-20T15:49:57.912Z,6.70
2022-10-20T15:54:59.449Z,6.32
2022-10-20T16:00:00.993Z,6.50
2022-10-20T16:05:02.562Z,6.68
2022-10-20T16:10:06.095Z,6.30
2022-10-20T16:15:08.886Z,6.22
2022-10-20T16:20:10.831Z,5.95
2022-10-20T16:25:12.389Z,5.78
2022-10-20T16:30:14.063Z,5.47
2022-10-20T16:35:15.659Z,5.78
2022-10-20T16:40:17.288Z,5.80
2022-10-20T16:45:18.830Z,5.78
2022-10-20T16:50:20.413Z,5.78
2022-10-20T16:55:21.958Z,5.70
2022-10-20T17:00:23.464Z,5.57
2022-10-20T17:05:26.584Z,5.30
2022-10-20T17:10:28.378Z,5.55
2022-10-20T17:15:29.932Z,5.65
2022-10-20T17:20:31.415Z,5.60
2022-10-20T17:25:32.927Z,5.45
2022-10-20T17:30:34.477Z,5.35
2022-10-20T17:35:36.105Z,4.35
2022-10-20T17:40:38.263Z,4.75
2022-10-20T17:45:39.788Z,5.18
2022-10-20T17:50:41.287Z,4.88
2022-10-20T17:55:42.797Z,5.10
2022-10-20T18:00:56.216Z,4.75
2022-10-20T18:05:58.501Z,4.80
2022-10-20T18:10:59.999Z,4.55
2022-10-20T18:16:04.927Z,4.55
2022-10-20T18:21:08.425Z,4.43
2022-10-20T18:26:12.767Z,4.20
2022-10-20T18:31:21.035Z,4.10
2022-10-20T18:36:23.135Z,4.18
2022-10-20T18:41:26.792Z,4.28
2022-10-20T18:46:31.551Z,3.92
2022-10-20T18:51:33.560Z,4.00
2022-10-20T18:56:35.762Z,3.85
2022-10-20T19:01:38.698Z,3.80
2022-10-20T19:06:43.070Z,3.47
2022-10-20T19:11:45.686Z,3.90
2022-10-20T19:16:48.636Z,4.00
2022-10-20T19:21:50.131Z,3.60
2022-10-20T19:27:24.540Z,3.50
2022-10-20T19:32:17.297Z,3.30
2022-10-20T19:37:18.810Z,4.07
2022-10-20T19:42:20.352Z,3.67
2022-10-20T19:47:21.986Z,3.97
2022-10-20T19:52:23.497Z,3.55
2022-10-20T19:57:25.137Z,3.90
2022-10-20T20:02:26.660Z,3.65
2022-10-20T20:07:28.185Z,4.18
2022-10-20T20:12:29.773Z,4.38
2022-10-20T20:17:31.264Z,3.42
2022-10-20T20:22:32.751Z,3.70
2022-10-20T20:27:34.315Z,3.97
2022-10-20T20:32:37.129Z,3.90
2022-10-20T20:37:39.119Z,4.15
2022-10-20T20:42:40.886Z,4.57
2022-10-20T20:47:43.174Z,4.40
2022-10-20T20:52:44.717Z,4.60
2022-10-20T20:57:46.217Z,4.82
2022-10-20T21:02:47.755Z,4.68
2022-10-20T21:07:49.275Z,5.18
2022-10-20T21:12:50.752Z,4.90
2022-10-20T21:17:52.268Z,4.70
2022-10-20T21:22:53.827Z,4.97
2022-10-20T21:27:55.412Z,4.82
2022-10-20T21:32:56.960Z,4.88
2022-10-20T21:37:58.448Z,5.32
2022-10-20T21:42:59.969Z,5.47
2022-10-20T21:48:01.563Z,5.25
2022-10-20T21:53:03.069Z,5.75
2022-10-20T21:58:04.590Z,5.85
2022-10-20T22:03:06.091Z,5.97
2022-10-20T22:08:07.635Z,5.85
2022-10-20T22:13:09.325Z,5.45
2022-10-20T22:18:10.818Z,5.30
2022-10-20T22:23:12.445Z,6.07
2022-10-20T22:28:13.947Z,5.38
2022-10-20T22:33:15.467Z,6.03
2022-10-20T22:38:17.042Z,5.85
2022-10-20T22:43:18.526Z,5.75
2022-10-20T22:48:20.173Z,5.88
2022-10-20T22:53:21.787Z,6.15
2022-10-20T22:58:23.400Z,5.60
2022-10-20T23:03:25.002Z,5.88
2022-10-20T23:08:29.415Z,6.38
2022-10-20T23:13:33.522Z,6.00
2022-10-20T23:18:35.054Z,6.18
2022-10-20T23:23:37.410Z,6.05
2022-10-20T23:28:38.984Z,5.95
2022-10-20T23:33:41.809Z,6.43
2022-10-20T23:38:43.636Z,6.40
2022-10-20T23:43:45.200Z,6.45
2022-10-20T23:48:46.808Z,6.13
2022-10-20T23:53:48.307Z,6.30
2022-10-20T23:58:49.893Z,6.18
